CheckWX is a tool to help pilots better visualize weather data.  It is not intended as a substitute for an official pre-flight weather briefing.

05:12:21 UTC

FMEP TAF
Pierrefonds Airport
St Pierre, Reunion
TAF FMEP 230200Z 2303/2312 09005KT 9999 SCT030TCU BECMG 2305/2307 12020G30KT

Mar-23@
03:00 UTC

Mar-23 @ 03:00 UTC

Mar-23@
05:00 UTC

Mar-23 @ 05:00 UTC

TAF FMEP 230200Z 2303/2312 09005KT 9999 SCT030TCU

Expired

Wind
  • 090° at 5 KTS
Cloud Levels
  • Scattered at 3,000' AGL

Mar-23@
05:00 UTC

Mar-23 @ 05:00 UTC

Mar-23@
12:00 UTC

Mar-23 @ 12:00 UTC

BECMG 2305/2307 12020G30KT

Becoming

Becoming Conditions expected by Sat, Mar 23, 2019 @ 07:00 UTC

Wind
  • 120° at 20 KTS
  • {Gusting to 30 KTS
Cloud Levels
  • Scattered at 3,000' AGL